Aviation Digital Data Service (ADDS)

Output produced by METARs form (0010 UTC 23 March 2019)
found at http://www.aviationweather.gov/metar/data/
 
METAR text: KRFD 222354Z 33006KT 10SM CLR 08/M06 A3020 RMK AO2 SLP233 T00781056 10111 20078 53009
Conditions at: KRFD (ROCKFORD , IL, US) observed 2354 UTC 22 March 2019
Temperature: 7.8°C (46°F)
Dewpoint: -5.6°C (22°F) [RH = 38%]
Pressure (altimeter): 30.20 inches Hg (1022.8 mb)
[Sea-level pressure: 1023.3 mb]
Winds: from the NNW (330 degrees) at 7 MPH (6 knots; 3.1 m/s)
Visibility: 10 or more miles (16+ km)
Ceiling: at least 12,000 feet AGL
Clouds: sky clear below 12,000 feet AGL
Weather: no significant weather observed at this time

METAR text: KRFD 222254Z 01006KT 10SM CLR 10/M06 A3019 RMK AO2 SLP230 T01001061
Conditions at: KRFD (ROCKFORD , IL, US) observed 2254 UTC 22 March 2019
Temperature: 10.0°C (50°F)
Dewpoint: -6.1°C (21°F) [RH = 32%]
Pressure (altimeter): 30.19 inches Hg (1022.4 mb)
[Sea-level pressure: 1023.0 mb]
Winds: from the N (10 degrees) at 7 MPH (6 knots; 3.1 m/s)
Visibility: 10 or more miles (16+ km)
Ceiling: at least 12,000 feet AGL
Clouds: sky clear below 12,000 feet AGL
Weather: no significant weather observed at this time

METAR text: KRFD 222154Z 36009KT 10SM FEW055 11/M06 A3018 RMK AO2 SLP225 T01061061
Conditions at: KRFD (ROCKFORD , IL, US) observed 2154 UTC 22 March 2019
Temperature: 10.6°C (51°F)
Dewpoint: -6.1°C (21°F) [RH = 30%]
Pressure (altimeter): 30.18 inches Hg (1022.1 mb)
[Sea-level pressure: 1022.5 mb]
Winds: from the N (360 degrees) at 10 MPH (9 knots; 4.6 m/s)
Visibility: 10 or more miles (16+ km)
Ceiling: at least 12,000 feet AGL
Clouds: few clouds at 5500 feet AGL
Weather: no significant weather observed at this time

METAR text: KRFD 222054Z 34011KT 10SM FEW055 11/M06 A3017 RMK AO2 SLP223 T01061061 53002
Conditions at: KRFD (ROCKFORD , IL, US) observed 2054 UTC 22 March 2019
Temperature: 10.6°C (51°F)
Dewpoint: -6.1°C (21°F) [RH = 30%]
Pressure (altimeter): 30.17 inches Hg (1021.8 mb)
[Sea-level pressure: 1022.3 mb]
Winds: from the NNW (340 degrees) at 13 MPH (11 knots; 5.7 m/s)
Visibility: 10 or more miles (16+ km)
Ceiling: at least 12,000 feet AGL
Clouds: few clouds at 5500 feet AGL
Weather: no significant weather observed at this time

METAR text: KRFD 221954Z 34012G18KT 10SM FEW055 11/M06 A3017 RMK AO2 SLP220 T01061061
Conditions at: KRFD (ROCKFORD , IL, US) observed 1954 UTC 22 March 2019
Temperature: 10.6°C (51°F)
Dewpoint: -6.1°C (21°F) [RH = 30%]
Pressure (altimeter): 30.17 inches Hg (1021.8 mb)
[Sea-level pressure: 1022.0 mb]
Winds: from the NNW (340 degrees) at 14 MPH (12 knots; 6.2 m/s)
gusting to 21 MPH (18 knots; 9.3 m/s)
Visibility: 10 or more miles (16+ km)
Ceiling: at least 12,000 feet AGL
Clouds: few clouds at 5500 feet AGL
Weather: no significant weather observed at this time

METAR text: KRFD 221854Z 34011G20KT 10SM FEW050 10/M06 A3017 RMK AO2 SLP220 T01001061
Conditions at: KRFD (ROCKFORD , IL, US) observed 1854 UTC 22 March 2019
Temperature: 10.0°C (50°F)
Dewpoint: -6.1°C (21°F) [RH = 32%]
Pressure (altimeter): 30.17 inches Hg (1021.8 mb)
[Sea-level pressure: 1022.0 mb]
Winds: from the NNW (340 degrees) at 13 MPH (11 knots; 5.7 m/s)
gusting to 23 MPH (20 knots; 10.3 m/s)
Visibility: 10 or more miles (16+ km)
Ceiling: at least 12,000 feet AGL
Clouds: few clouds at 5000 feet AGL
Weather: no significant weather observed at this time

METAR text: KRFD 221754Z 33013G21KT 10SM FEW050 09/M06 A3017 RMK AO2 SLP221 T00941056 10100 20000 51012
Conditions at: KRFD (ROCKFORD , IL, US) observed 1754 UTC 22 March 2019
Temperature: 9.4°C (49°F)
Dewpoint: -5.6°C (22°F) [RH = 34%]
Pressure (altimeter): 30.17 inches Hg (1021.8 mb)
[Sea-level pressure: 1022.1 mb]
Winds: from the NNW (330 degrees) at 15 MPH (13 knots; 6.7 m/s)
gusting to 24 MPH (21 knots; 10.8 m/s)
Visibility: 10 or more miles (16+ km)
Ceiling: at least 12,000 feet AGL
Clouds: few clouds at 5000 feet AGL
Weather: no significant weather observed at this time

METAR text: KRFD 221654Z 36018G27KT 10SM SCT050 09/M06 A3016 RMK AO2 PK WND 36027/1653 SLP217 T00941056
Conditions at: KRFD (ROCKFORD , IL, US) observed 1654 UTC 22 March 2019
Temperature: 9.4°C (49°F)
Dewpoint: -5.6°C (22°F) [RH = 34%]
Pressure (altimeter): 30.16 inches Hg (1021.4 mb)
[Sea-level pressure: 1021.7 mb]
Winds: from the N (360 degrees) at 21 MPH (18 knots; 9.3 m/s)
gusting to 31 MPH (27 knots; 13.9 m/s)
Visibility: 10 or more miles (16+ km)
Ceiling: at least 12,000 feet AGL
Clouds: scattered clouds at 5000 feet AGL
Weather: no significant weather observed at this time

METAR text: KRFD 221554Z 34015G22KT 10SM SCT050 08/M06 A3015 RMK AO2 SLP214 T00831056
Conditions at: KRFD (ROCKFORD , IL, US) observed 1554 UTC 22 March 2019
Temperature: 8.3°C (47°F)
Dewpoint: -5.6°C (22°F) [RH = 37%]
Pressure (altimeter): 30.15 inches Hg (1021.1 mb)
[Sea-level pressure: 1021.4 mb]
Winds: from the NNW (340 degrees) at 17 MPH (15 knots; 7.7 m/s)
gusting to 25 MPH (22 knots; 11.3 m/s)
Visibility: 10 or more miles (16+ km)
Ceiling: at least 12,000 feet AGL
Clouds: scattered clouds at 5000 feet AGL
Weather: no significant weather observed at this time

METAR text: KRFD 221454Z 34010KT 10SM CLR 07/M02 A3013 RMK AO2 SLP209 T00671017 51028
Conditions at: KRFD (ROCKFORD , IL, US) observed 1454 UTC 22 March 2019
Temperature: 6.7°C (44°F)
Dewpoint: -1.7°C (29°F) [RH = 55%]
Pressure (altimeter): 30.13 inches Hg (1020.4 mb)
[Sea-level pressure: 1020.9 mb]
Winds: from the NNW (340 degrees) at 12 MPH (10 knots; 5.1 m/s)
Visibility: 10 or more miles (16+ km)
Ceiling: at least 12,000 feet AGL
Clouds: sky clear below 12,000 feet AGL
Weather: no significant weather observed at this time

METAR text: KRFD 221354Z 35010KT 10SM CLR 05/M01 A3011 RMK AO2 SLP201 T00501006
Conditions at: KRFD (ROCKFORD , IL, US) observed 1354 UTC 22 March 2019
Temperature: 5.0°C (41°F)
Dewpoint: -0.6°C (31°F) [RH = 67%]
Pressure (altimeter): 30.11 inches Hg (1019.7 mb)
[Sea-level pressure: 1020.1 mb]
Winds: from the N (350 degrees) at 12 MPH (10 knots; 5.1 m/s)
Visibility: 10 or more miles (16+ km)
Ceiling: at least 12,000 feet AGL
Clouds: sky clear below 12,000 feet AGL
Weather: no significant weather observed at this time

METAR text: KRFD 221254Z 34003KT 10SM CLR 02/M01 A3008 RMK AO2 SLP191 T00221011
Conditions at: KRFD (ROCKFORD , IL, US) observed 1254 UTC 22 March 2019
Temperature: 2.2°C (36°F)
Dewpoint: -1.1°C (30°F) [RH = 79%]
Pressure (altimeter): 30.08 inches Hg (1018.7 mb)
[Sea-level pressure: 1019.1 mb]
Winds: from the NNW (340 degrees) at 3 MPH (3 knots; 1.5 m/s)
Visibility: 10 or more miles (16+ km)
Ceiling: at least 12,000 feet AGL
Clouds: sky clear below 12,000 feet AGL
Weather: no significant weather observed at this time

METAR text: KRFD 221154Z 34005KT 10SM CLR 01/M02 A3005 RMK AO2 SLP182 T00061017 10039 20006 53024
Conditions at: KRFD (ROCKFORD , IL, US) observed 1154 UTC 22 March 2019
Temperature: 0.6°C (33°F)
Dewpoint: -1.7°C (29°F) [RH = 85%]
Pressure (altimeter): 30.05 inches Hg (1017.7 mb)
[Sea-level pressure: 1018.2 mb]
Winds: from the NNW (340 degrees) at 6 MPH (5 knots; 2.6 m/s)
Visibility: 10 or more miles (16+ km)
Ceiling: at least 12,000 feet AGL
Clouds: sky clear below 12,000 feet AGL
Weather: no significant weather observed at this time

METAR text: KRFD 221054Z 31006KT 10SM CLR 01/M02 A3002 RMK AO2 SLP171 T00111017
Conditions at: KRFD (ROCKFORD , IL, US) observed 1054 UTC 22 March 2019
Temperature: 1.1°C (34°F)
Dewpoint: -1.7°C (29°F) [RH = 82%]
Pressure (altimeter): 30.02 inches Hg (1016.7 mb)
[Sea-level pressure: 1017.1 mb]
Winds: from the NW (310 degrees) at 7 MPH (6 knots; 3.1 m/s)
Visibility: 10 or more miles (16+ km)
Ceiling: at least 12,000 feet AGL
Clouds: sky clear below 12,000 feet AGL
Weather: no significant weather observed at this time

METAR text: KRFD 220954Z 32007KT 10SM CLR 02/M01 A2999 RMK AO2 SLP159 T00171006
Conditions at: KRFD (ROCKFORD , IL, US) observed 0954 UTC 22 March 2019
Temperature: 1.7°C (35°F)
Dewpoint: -0.6°C (31°F) [RH = 85%]
Pressure (altimeter): 29.99 inches Hg (1015.7 mb)
[Sea-level pressure: 1015.9 mb]
Winds: from the NW (320 degrees) at 8 MPH (7 knots; 3.6 m/s)
Visibility: 10 or more miles (16+ km)
Ceiling: at least 12,000 feet AGL
Clouds: sky clear below 12,000 feet AGL
Weather: no significant weather observed at this time

METAR text: KRFD 220854Z 31005KT 10SM CLR 02/M01 A2998 RMK AO2 SLP156 T00171006 53001
Conditions at: KRFD (ROCKFORD , IL, US) observed 0854 UTC 22 March 2019
Temperature: 1.7°C (35°F)
Dewpoint: -0.6°C (31°F) [RH = 85%]
Pressure (altimeter): 29.98 inches Hg (1015.3 mb)
[Sea-level pressure: 1015.6 mb]
Winds: from the NW (310 degrees) at 6 MPH (5 knots; 2.6 m/s)
Visibility: 10 or more miles (16+ km)
Ceiling: at least 12,000 feet AGL
Clouds: sky clear below 12,000 feet AGL
Weather: no significant weather observed at this time

METAR text: KRFD 220754Z 33004KT 10SM CLR 02/M01 A2997 RMK AO2 SLP155 T00221006
Conditions at: KRFD (ROCKFORD , IL, US) observed 0754 UTC 22 March 2019
Temperature: 2.2°C (36°F)
Dewpoint: -0.6°C (31°F) [RH = 82%]
Pressure (altimeter): 29.97 inches Hg (1015.0 mb)
[Sea-level pressure: 1015.5 mb]
Winds: from the NNW (330 degrees) at 5 MPH (4 knots; 2.1 m/s)
Visibility: 10 or more miles (16+ km)
Ceiling: at least 12,000 feet AGL
Clouds: sky clear below 12,000 feet AGL
Weather: no significant weather observed at this time

METAR text: KRFD 220654Z 31005KT 10SM CLR 03/00 A2998 RMK AO2 SLP156 T00280000
Conditions at: KRFD (ROCKFORD , IL, US) observed 0654 UTC 22 March 2019
Temperature: 2.8°C (37°F)
Dewpoint: 0.0°C (32°F) [RH = 82%]
Pressure (altimeter): 29.98 inches Hg (1015.3 mb)
[Sea-level pressure: 1015.6 mb]
Winds: from the NW (310 degrees) at 6 MPH (5 knots; 2.6 m/s)
Visibility: 10 or more miles (16+ km)
Ceiling: at least 12,000 feet AGL
Clouds: sky clear below 12,000 feet AGL
Weather: no significant weather observed at this time

METAR text: KRFD 220554Z 30007KT 10SM CLR 04/01 A2998 RMK AO2 SLP155 T00390006 10083 20039 401000028 50002
Conditions at: KRFD (ROCKFORD , IL, US) observed 0554 UTC 22 March 2019
Temperature: 3.9°C (39°F)
Dewpoint: 0.6°C (33°F) [RH = 79%]
Pressure (altimeter): 29.98 inches Hg (1015.3 mb)
[Sea-level pressure: 1015.5 mb]
Winds: from the WNW (300 degrees) at 8 MPH (7 knots; 3.6 m/s)
Visibility: 10 or more miles (16+ km)
Ceiling: at least 12,000 feet AGL
Clouds: sky clear below 12,000 feet AGL
Weather: no significant weather observed at this time

METAR text: KRFD 220454Z 30009G17KT 10SM CLR 04/01 A2998 RMK AO2 SLP158 T00440006
Conditions at: KRFD (ROCKFORD , IL, US) observed 0454 UTC 22 March 2019
Temperature: 4.4°C (40°F)
Dewpoint: 0.6°C (33°F) [RH = 76%]
Pressure (altimeter): 29.98 inches Hg (1015.3 mb)
[Sea-level pressure: 1015.8 mb]
Winds: from the WNW (300 degrees) at 10 MPH (9 knots; 4.6 m/s)
gusting to 20 MPH (17 knots; 8.7 m/s)
Visibility: 10 or more miles (16+ km)
Ceiling: at least 12,000 feet AGL
Clouds: sky clear below 12,000 feet AGL
Weather: no significant weather observed at this time

METAR text: KRFD 220354Z 29008KT 10SM CLR 05/01 A2998 RMK AO2 SLP157 T00500006
Conditions at: KRFD (ROCKFORD , IL, US) observed 0354 UTC 22 March 2019
Temperature: 5.0°C (41°F)
Dewpoint: 0.6°C (33°F) [RH = 73%]
Pressure (altimeter): 29.98 inches Hg (1015.3 mb)
[Sea-level pressure: 1015.7 mb]
Winds: from the WNW (290 degrees) at 9 MPH (8 knots; 4.1 m/s)
Visibility: 10 or more miles (16+ km)
Ceiling: at least 12,000 feet AGL
Clouds: sky clear below 12,000 feet AGL
Weather: no significant weather observed at this time

METAR text: KRFD 220254Z 27012KT 10SM CLR 06/01 A2997 RMK AO2 SLP153 T00560006 51001
Conditions at: KRFD (ROCKFORD , IL, US) observed 0254 UTC 22 March 2019
Temperature: 5.6°C (42°F)
Dewpoint: 0.6°C (33°F) [RH = 70%]
Pressure (altimeter): 29.97 inches Hg (1015.0 mb)
[Sea-level pressure: 1015.3 mb]
Winds: from the W (270 degrees) at 14 MPH (12 knots; 6.2 m/s)
Visibility: 10 or more miles (16+ km)
Ceiling: at least 12,000 feet AGL
Clouds: sky clear below 12,000 feet AGL
Weather: no significant weather observed at this time

METAR text: KRFD 220154Z 27007KT 10SM CLR 06/01 A2997 RMK AO2 SLP153 T00560006
Conditions at: KRFD (ROCKFORD , IL, US) observed 0154 UTC 22 March 2019
Temperature: 5.6°C (42°F)
Dewpoint: 0.6°C (33°F) [RH = 70%]
Pressure (altimeter): 29.97 inches Hg (1015.0 mb)
[Sea-level pressure: 1015.3 mb]
Winds: from the W (270 degrees) at 8 MPH (7 knots; 3.6 m/s)
Visibility: 10 or more miles (16+ km)
Ceiling: at least 12,000 feet AGL
Clouds: sky clear below 12,000 feet AGL
Weather: no significant weather observed at this time

METAR text: KRFD 220054Z 27006KT 10SM CLR 05/M01 A2997 RMK AO2 SLP154 T00501006
Conditions at: KRFD (ROCKFORD , IL, US) observed 0054 UTC 22 March 2019
Temperature: 5.0°C (41°F)
Dewpoint: -0.6°C (31°F) [RH = 67%]
Pressure (altimeter): 29.97 inches Hg (1015.0 mb)
[Sea-level pressure: 1015.4 mb]
Winds: from the W (270 degrees) at 7 MPH (6 knots; 3.1 m/s)
Visibility: 10 or more miles (16+ km)
Ceiling: at least 12,000 feet AGL
Clouds: sky clear below 12,000 feet AGL
Weather: no significant weather observed at this time

METAR text: KRFD 212354Z 28010KT 10SM CLR 08/M01 A2997 RMK AO2 SLP152 T00831006 10100 20061 56017
Conditions at: KRFD (ROCKFORD , IL, US) observed 2354 UTC 21 March 2019
Temperature: 8.3°C (47°F)
Dewpoint: -0.6°C (31°F) [RH = 53%]
Pressure (altimeter): 29.97 inches Hg (1015.0 mb)
[Sea-level pressure: 1015.2 mb]
Winds: from the W (280 degrees) at 12 MPH (10 knots; 5.1 m/s)
Visibility: 10 or more miles (16+ km)
Ceiling: at least 12,000 feet AGL
Clouds: sky clear below 12,000 feet AGL
Weather: no significant weather observed at this time

METAR text: KRFD 212254Z 27013KT 10SM CLR 10/00 A2997 RMK AO2 SLP154 T01000000
Conditions at: KRFD (ROCKFORD , IL, US) observed 2254 UTC 21 March 2019
Temperature: 10.0°C (50°F)
Dewpoint: 0.0°C (32°F) [RH = 50%]
Pressure (altimeter): 29.97 inches Hg (1015.0 mb)
[Sea-level pressure: 1015.4 mb]
Winds: from the W (270 degrees) at 15 MPH (13 knots; 6.7 m/s)
Visibility: 10 or more miles (16+ km)
Ceiling: at least 12,000 feet AGL
Clouds: sky clear below 12,000 feet AGL
Weather: no significant weather observed at this time

METAR text: KRFD 212154Z 27014G21KT 10SM FEW035 10/00 A2999 RMK AO2 PK WND 30028/2127 SLP161 T01000000
Conditions at: KRFD (ROCKFORD , IL, US) observed 2154 UTC 21 March 2019
Temperature: 10.0°C (50°F)
Dewpoint: 0.0°C (32°F) [RH = 50%]
Pressure (altimeter): 29.99 inches Hg (1015.7 mb)
[Sea-level pressure: 1016.1 mb]
Winds: from the W (270 degrees) at 16 MPH (14 knots; 7.2 m/s)
gusting to 24 MPH (21 knots; 10.8 m/s)
Visibility: 10 or more miles (16+ km)
Ceiling: at least 12,000 feet AGL
Clouds: few clouds at 3500 feet AGL
Weather: no significant weather observed at this time

METAR text: KRFD 212054Z 29014G19KT 10SM BKN032 08/M01 A3002 RMK AO2 SLP169 T00831006 58018
Conditions at: KRFD (ROCKFORD , IL, US) observed 2054 UTC 21 March 2019
Temperature: 8.3°C (47°F)
Dewpoint: -0.6°C (31°F) [RH = 53%]
Pressure (altimeter): 30.02 inches Hg (1016.7 mb)
[Sea-level pressure: 1016.9 mb]
Winds: from the WNW (290 degrees) at 16 MPH (14 knots; 7.2 m/s)
gusting to 22 MPH (19 knots; 9.8 m/s)
Visibility: 10 or more miles (16+ km)
Ceiling: 3200 feet AGL
Clouds: broken clouds at 3200 feet AGL
Weather: no significant weather observed at this time

METAR text: KRFD 212019Z 29012KT 10SM BKN030 08/M01 A3003 RMK AO2 T00781006
Conditions at: KRFD (ROCKFORD , IL, US) observed 2019 UTC 21 March 2019
Temperature: 7.8°C (46°F)
Dewpoint: -0.6°C (31°F) [RH = 55%]
Pressure (altimeter): 30.03 inches Hg (1017.0 mb)
Winds: from the WNW (290 degrees) at 14 MPH (12 knots; 6.2 m/s)
Visibility: 10 or more miles (16+ km)
Ceiling: 3000 feet AGL
Clouds: broken clouds at 3000 feet AGL
Weather: no significant weather observed at this time

METAR text: KRFD 211954Z 29012KT 10SM OVC028 07/M01 A3003 RMK AO2 SLP174 T00721006
Conditions at: KRFD (ROCKFORD , IL, US) observed 1954 UTC 21 March 2019
Temperature: 7.2°C (45°F)
Dewpoint: -0.6°C (31°F) [RH = 58%]
Pressure (altimeter): 30.03 inches Hg (1017.0 mb)
[Sea-level pressure: 1017.4 mb]
Winds: from the WNW (290 degrees) at 14 MPH (12 knots; 6.2 m/s)
Visibility: 10 or more miles (16+ km)
Ceiling: 2800 feet AGL
Clouds: overcast cloud deck at 2800 feet AGL
Weather: no significant weather observed at this time

METAR text: KRFD 211854Z 31010KT 10SM OVC029 07/M01 A3006 RMK AO2 SLP183 T00721011
Conditions at: KRFD (ROCKFORD , IL, US) observed 1854 UTC 21 March 2019
Temperature: 7.2°C (45°F)
Dewpoint: -1.1°C (30°F) [RH = 56%]
Pressure (altimeter): 30.06 inches Hg (1018.0 mb)
[Sea-level pressure: 1018.3 mb]
Winds: from the NW (310 degrees) at 12 MPH (10 knots; 5.1 m/s)
Visibility: 10 or more miles (16+ km)
Ceiling: 2900 feet AGL
Clouds: overcast cloud deck at 2900 feet AGL
Weather: no significant weather observed at this time

METAR text: KRFD 211754Z 32010KT 10SM OVC026 07/M01 A3007 RMK AO2 SLP187 T00671011 10067 20028 50003
Conditions at: KRFD (ROCKFORD , IL, US) observed 1754 UTC 21 March 2019
Temperature: 6.7°C (44°F)
Dewpoint: -1.1°C (30°F) [RH = 57%]
Pressure (altimeter): 30.07 inches Hg (1018.4 mb)
[Sea-level pressure: 1018.7 mb]
Winds: from the NW (320 degrees) at 12 MPH (10 knots; 5.1 m/s)
Visibility: 10 or more miles (16+ km)
Ceiling: 2600 feet AGL
Clouds: overcast cloud deck at 2600 feet AGL
Weather: no significant weather observed at this time

METAR text: KRFD 211654Z 36008KT 10SM OVC022 07/00 A3007 RMK AO2 SLP189 T00670000
Conditions at: KRFD (ROCKFORD , IL, US) observed 1654 UTC 21 March 2019
Temperature: 6.7°C (44°F)
Dewpoint: 0.0°C (32°F) [RH = 62%]
Pressure (altimeter): 30.07 inches Hg (1018.4 mb)
[Sea-level pressure: 1018.9 mb]
Winds: from the N (360 degrees) at 9 MPH (8 knots; 4.1 m/s)
Visibility: 10 or more miles (16+ km)
Ceiling: 2200 feet AGL
Clouds: overcast cloud deck at 2200 feet AGL
Weather: no significant weather observed at this time

METAR text: KRFD 211554Z 34009KT 10SM BKN018 OVC038 06/01 A3007 RMK AO2 SLP187 T00610006
Conditions at: KRFD (ROCKFORD , IL, US) observed 1554 UTC 21 March 2019
Temperature: 6.1°C (43°F)
Dewpoint: 0.6°C (33°F) [RH = 68%]
Pressure (altimeter): 30.07 inches Hg (1018.4 mb)
[Sea-level pressure: 1018.7 mb]
Winds: from the NNW (340 degrees) at 10 MPH (9 knots; 4.6 m/s)
Visibility: 10 or more miles (16+ km)
Ceiling: 1800 feet AGL
Clouds: broken clouds at 1800 feet AGL
overcast cloud deck at 3800 feet AGL
Weather: no significant weather observed at this time

METAR text: KRFD 211454Z 35014G21KT 10SM BKN015 OVC042 04/01 A3006 RMK AO2 SLP185 T00440006 53009
Conditions at: KRFD (ROCKFORD , IL, US) observed 1454 UTC 21 March 2019
Temperature: 4.4°C (40°F)
Dewpoint: 0.6°C (33°F) [RH = 76%]
Pressure (altimeter): 30.06 inches Hg (1018.0 mb)
[Sea-level pressure: 1018.5 mb]
Winds: from the N (350 degrees) at 16 MPH (14 knots; 7.2 m/s)
gusting to 24 MPH (21 knots; 10.8 m/s)
Visibility: 10 or more miles (16+ km)
Ceiling: 1500 feet AGL
Clouds: broken clouds at 1500 feet AGL
overcast cloud deck at 4200 feet AGL
Weather: no significant weather observed at this time

METAR text: KRFD 211354Z 35012KT 10SM BKN015 OVC039 04/00 A3004 RMK AO2 SLP180 T00390000
Conditions at: KRFD (ROCKFORD , IL, US) observed 1354 UTC 21 March 2019
Temperature: 3.9°C (39°F)
Dewpoint: 0.0°C (32°F) [RH = 76%]
Pressure (altimeter): 30.04 inches Hg (1017.4 mb)
[Sea-level pressure: 1018.0 mb]
Winds: from the N (350 degrees) at 14 MPH (12 knots; 6.2 m/s)
Visibility: 10 or more miles (16+ km)
Ceiling: 1500 feet AGL
Clouds: broken clouds at 1500 feet AGL
overcast cloud deck at 3900 feet AGL
Weather: no significant weather observed at this time

METAR text: KRFD 211349Z 35010KT 10SM BKN015 OVC039 04/00 A3004 RMK AO2
Conditions at: KRFD (ROCKFORD , IL, US) observed 1349 UTC 21 March 2019
Temperature: 4.0°C (39°F)
Dewpoint: 0.0°C (32°F) [RH = 75%]
Pressure (altimeter): 30.04 inches Hg (1017.4 mb)
Winds: from the N (350 degrees) at 12 MPH (10 knots; 5.1 m/s)
Visibility: 10 or more miles (16+ km)
Ceiling: 1500 feet AGL
Clouds: broken clouds at 1500 feet AGL
overcast cloud deck at 3900 feet AGL
Weather: no significant weather observed at this time

METAR text: KRFD 211336Z 35011KT 10SM SCT015 BKN031 OVC039 03/00 A3004 RMK AO2 T00330000
Conditions at: KRFD (ROCKFORD , IL, US) observed 1336 UTC 21 March 2019
Temperature: 3.3°C (38°F)
Dewpoint: 0.0°C (32°F) [RH = 79%]
Pressure (altimeter): 30.04 inches Hg (1017.4 mb)
Winds: from the N (350 degrees) at 13 MPH (11 knots; 5.7 m/s)
Visibility: 10 or more miles (16+ km)
Ceiling: 3100 feet AGL
Clouds: scattered clouds at 1500 feet AGL
broken clouds at 3100 feet AGL
overcast cloud deck at 3900 feet AGL
Weather: no significant weather observed at this time

METAR text: KRFD 211254Z 33013KT 10SM OVC015 03/00 A3003 RMK AO2 SLP175 T00330000
Conditions at: KRFD (ROCKFORD , IL, US) observed 1254 UTC 21 March 2019
Temperature: 3.3°C (38°F)
Dewpoint: 0.0°C (32°F) [RH = 79%]
Pressure (altimeter): 30.03 inches Hg (1017.0 mb)
[Sea-level pressure: 1017.5 mb]
Winds: from the NNW (330 degrees) at 15 MPH (13 knots; 6.7 m/s)
Visibility: 10 or more miles (16+ km)
Ceiling: 1500 feet AGL
Clouds: overcast cloud deck at 1500 feet AGL
Weather: no significant weather observed at this time

Forecast for: KRFD (ROCKFORD , IL, US)
Text: KRFD 222321Z 2300/2324 02005KT P6SM FEW050
Forecast period: 0000 to 0300 UTC 23 March 2019
Forecast type: FROM: standard forecast or significant change
Winds: from the NNE (20 degrees) at 6 MPH (5 knots; 2.6 m/s)
Visibility: 6 or more miles 10+ km)
Ceiling: at least 12,000 feet AGL
Clouds: few clouds at 5000 feet AGL
Weather: no significant weather forecast for this period
Text: FM230300 VRB03KT P6SM SKC
Forecast period: 0300 to 1300 UTC 23 March 2019
Forecast type: FROM: standard forecast or significant change
Winds: variable direction winds at 3 MPH (3 knots; 1.5 m/s)
Visibility: 6 or more miles 10+ km)
Clouds: clear skies
Weather: no significant weather forecast for this period
Text: FM231300 17004KT P6SM FEW250
Forecast period: 1300 to 1600 UTC 23 March 2019
Forecast type: FROM: standard forecast or significant change
Winds: from the S (170 degrees) at 5 MPH (4 knots; 2.1 m/s)
Visibility: 6 or more miles 10+ km)
Ceiling: at least 12,000 feet AGL
Clouds: few clouds at 25000 feet AGL
Weather: no significant weather forecast for this period
Text: FM231600 19008KT P6SM SCT250
Forecast period: 1600 UTC 23 March 2019 to 0000 UTC 24 March 2019
Forecast type: FROM: standard forecast or significant change
Winds: from the S (190 degrees) at 9 MPH (8 knots; 4.1 m/s)
Visibility: 6 or more miles 10+ km)
Ceiling: at least 12,000 feet AGL
Clouds: scattered clouds at 25000 feet AGL
Weather: no significant weather forecast for this period